createdAt,value
2023-01-18T00:01:24.823Z,97623.69
2023-01-18T00:03:54.629Z,97619.09
2023-01-18T00:06:27.833Z,97618.84
2023-01-18T00:09:00.330Z,97622.50
2023-01-18T00:11:30.162Z,97624.00
2023-01-18T00:14:00.021Z,97623.53
2023-01-18T00:16:30.381Z,97623.44
2023-01-18T00:19:02.190Z,97637.72
2023-01-18T00:21:32.027Z,97622.31
2023-01-18T00:24:04.377Z,97627.66
2023-01-18T00:26:34.245Z,97629.91
2023-01-18T00:29:04.890Z,97627.97
2023-01-18T00:31:34.809Z,97623.44
2023-01-18T00:34:04.671Z,97622.69
2023-01-18T00:36:34.760Z,97627.38
2023-01-18T00:39:08.877Z,97627.25
2023-01-18T00:41:59.441Z,97630.75
2023-01-18T00:44:26.669Z,97633.50
2023-01-18T00:46:56.450Z,97631.56
2023-01-18T00:49:26.942Z,97628.47
2023-01-18T00:51:58.760Z,97627.38
2023-01-18T00:54:31.298Z,97629.75
2023-01-18T00:57:01.204Z,97629.41
2023-01-18T00:59:31.078Z,97629.66
2023-01-18T01:02:01.067Z,97629.59
2023-01-18T01:04:43.548Z,97637.56
2023-01-18T01:07:14.264Z,97641.22
2023-01-18T01:09:46.797Z,97636.91
2023-01-18T01:12:29.107Z,97642.97
2023-01-18T01:15:11.452Z,97642.88
2023-01-18T01:17:54.452Z,97643.16
2023-01-18T01:20:38.617Z,97641.41
2023-01-18T01:23:25.627Z,97644.81
2023-01-18T01:26:08.890Z,97645.72
2023-01-18T01:28:39.382Z,97652.25
2023-01-18T01:31:12.073Z,97656.28
2023-01-18T01:33:42.500Z,97662.78
2023-01-18T01:36:15.213Z,97659.69
2023-01-18T01:38:45.395Z,97656.09
2023-01-18T01:41:23.797Z,97663.09
2023-01-18T01:43:56.023Z,97672.16
2023-01-18T01:46:35.510Z,97667.00
2023-01-18T01:49:14.613Z,97668.22
2023-01-18T01:51:47.094Z,97669.16
2023-01-18T01:54:23.882Z,97669.41
2023-01-18T01:57:06.232Z,97677.66
2023-01-18T01:59:41.326Z,97675.28
2023-01-18T02:02:13.656Z,97686.13
2023-01-18T02:04:46.569Z,97688.78
2023-01-18T02:07:16.596Z,97691.25
2023-01-18T02:09:46.689Z,97687.66
2023-01-18T02:12:19.832Z,97691.06
2023-01-18T02:14:50.174Z,97703.53
2023-01-18T02:17:37.004Z,97696.19
2023-01-18T02:20:57.817Z,97700.34
2023-01-18T02:23:45.971Z,97705.75
2023-01-18T02:26:46.228Z,97702.63
2023-01-18T02:29:23.731Z,97710.25
2023-01-18T02:32:17.164Z,97720.22
2023-01-18T02:34:52.245Z,97727.50
2023-01-18T02:37:33.060Z,97728.16
2023-01-18T02:40:17.896Z,97731.38
2023-01-18T02:43:00.974Z,97736.41
2023-01-18T02:45:51.526Z,97739.78
2023-01-18T02:48:25.562Z,97743.47
2023-01-18T02:50:55.717Z,97747.25
2023-01-18T02:53:25.546Z,97749.00
2023-01-18T02:56:02.847Z,97748.69
2023-01-18T02:58:37.253Z,97746.84
2023-01-18T03:01:14.572Z,97753.69
2023-01-18T03:03:48.786Z,97760.81
2023-01-18T03:06:18.632Z,97760.81
2023-01-18T03:08:52.710Z,97762.00
2023-01-18T03:11:35.894Z,97752.47
2023-01-18T03:14:23.926Z,97759.97
2023-01-18T03:17:08.770Z,97764.84
2023-01-18T03:19:59.937Z,97762.44
2023-01-18T03:22:43.755Z,97770.91
2023-01-18T03:25:20.264Z,97771.69
2023-01-18T03:28:07.203Z,97769.53
2023-01-18T03:30:51.929Z,97778.63
2023-01-18T03:33:47.245Z,97779.31
2023-01-18T03:36:24.864Z,97777.41
2023-01-18T03:39:00.547Z,97786.53
2023-01-18T03:41:35.120Z,97779.31
2023-01-18T03:44:12.365Z,97786.41
2023-01-18T03:46:43.945Z,97789.06
2023-01-18T03:49:17.938Z,97793.28
2023-01-18T03:52:02.865Z,97804.38
2023-01-18T03:54:40.921Z,97807.34
2023-01-18T03:57:19.295Z,97809.94
2023-01-18T03:59:50.364Z,97821.03
2023-01-18T04:02:21.337Z,97828.16
2023-01-18T04:04:57.768Z,97824.81
2023-01-18T04:07:28.380Z,97835.22
2023-01-18T04:09:58.257Z,97840.78
2023-01-18T04:12:28.287Z,97837.47
2023-01-18T04:14:58.199Z,97848.09
2023-01-18T04:17:27.979Z,97847.41
2023-01-18T04:20:00.379Z,97852.13
2023-01-18T04:22:30.274Z,97856.72
2023-01-18T04:25:00.128Z,97857.97
2023-01-18T04:27:30.023Z,97862.53
2023-01-18T04:30:00.576Z,97869.69
2023-01-18T04:32:31.251Z,97864.91
2023-01-18T04:35:03.674Z,97871.22
2023-01-18T04:37:34.705Z,97882.84
2023-01-18T04:40:04.568Z,97877.78
2023-01-18T04:42:34.547Z,97887.34
2023-01-18T04:45:04.540Z,97896.13
2023-01-18T04:47:34.418Z,97902.44
2023-01-18T04:50:08.334Z,97900.94
2023-01-18T04:52:38.131Z,97903.53
2023-01-18T04:55:09.151Z,97910.59
2023-01-18T04:57:39.042Z,97914.22
2023-01-18T05:00:10.998Z,97917.59
2023-01-18T05:02:41.048Z,97925.94
2023-01-18T05:05:13.635Z,97924.03
2023-01-18T05:10:15.107Z,97931.34
2023-01-18T05:12:44.948Z,97936.16
2023-01-18T05:15:14.923Z,97942.19
2023-01-18T05:17:44.715Z,97945.19
2023-01-18T05:20:17.261Z,97948.78
2023-01-18T05:22:47.128Z,97961.09
2023-01-18T05:25:17.211Z,97962.63
2023-01-18T05:27:47.215Z,97975.78
2023-01-18T05:30:18.238Z,97982.84
2023-01-18T05:32:48.010Z,97987.06
2023-01-18T05:35:20.498Z,97990.72
2023-01-18T05:37:51.537Z,98000.00
2023-01-18T05:40:21.737Z,98003.63
2023-01-18T05:42:51.652Z,98006.78
2023-01-18T05:45:21.499Z,98016.28
2023-01-18T05:47:51.315Z,98019.25
2023-01-18T05:50:23.802Z,98011.78
2023-01-18T05:52:53.659Z,98022.28
2023-01-18T05:55:23.531Z,98019.97
2023-01-18T05:57:53.635Z,98028.31
2023-01-18T06:00:24.641Z,98020.78
2023-01-18T06:02:55.647Z,98025.59
2023-01-18T06:05:28.469Z,98031.06
2023-01-18T06:07:58.360Z,98039.72
2023-01-18T06:10:28.267Z,98052.19
2023-01-18T06:12:58.438Z,98057.81
2023-01-18T06:15:28.413Z,98063.44
2023-01-18T06:17:59.455Z,98073.94
2023-01-18T06:20:32.213Z,98086.91
2023-01-18T06:23:02.104Z,98082.28
2023-01-18T06:25:31.976Z,98078.81
2023-01-18T06:28:02.716Z,98091.72
2023-01-18T06:30:32.513Z,98103.41
2023-01-18T06:33:06.724Z,98103.88
2023-01-18T06:35:40.108Z,98108.19
2023-01-18T06:38:10.748Z,98120.66
2023-01-18T06:40:40.578Z,98124.81
2023-01-18T06:43:14.153Z,98125.66
2023-01-18T06:45:44.795Z,98130.63
2023-01-18T06:48:14.681Z,98133.94
2023-01-18T06:50:47.122Z,98144.25
2023-01-18T06:53:16.970Z,98145.25
2023-01-18T06:55:46.775Z,98145.56
2023-01-18T06:58:16.677Z,98162.19
2023-01-18T07:00:46.494Z,98158.84
2023-01-18T07:03:16.476Z,98164.69
2023-01-18T07:05:49.046Z,98165.19
2023-01-18T07:08:21.065Z,98170.66
2023-01-18T07:10:52.573Z,98179.47
2023-01-18T07:13:22.963Z,98180.47
2023-01-18T07:16:00.771Z,98182.31
2023-01-18T07:18:32.694Z,98189.78
2023-01-18T07:21:08.179Z,98192.28
2023-01-18T07:23:40.622Z,98184.16
2023-01-18T07:26:12.625Z,98201.38
2023-01-18T07:28:42.463Z,98197.44
2023-01-18T07:31:12.298Z,98206.56
2023-01-18T07:33:42.195Z,98211.56
2023-01-18T07:36:15.530Z,98217.38
2023-01-18T07:38:45.480Z,98214.38
2023-01-18T07:41:17.247Z,98220.03
2023-01-18T07:43:48.098Z,98226.69
2023-01-18T07:46:21.258Z,98225.34
2023-01-18T07:48:51.854Z,98228.84
2023-01-18T07:51:25.718Z,98223.19
2023-01-18T07:53:56.731Z,98228.34
2023-01-18T07:56:27.284Z,98237.34
2023-01-18T07:58:57.331Z,98239.78
2023-01-18T08:01:27.639Z,98238.81
2023-01-18T08:03:57.543Z,98245.13
2023-01-18T08:06:30.103Z,98247.78
2023-01-18T08:09:00.022Z,98258.41
2023-01-18T08:11:29.915Z,98263.41
2023-01-18T08:13:59.761Z,98268.38
2023-01-18T08:16:29.651Z,98279.69
2023-01-18T08:18:59.481Z,98278.88
2023-01-18T08:21:33.617Z,98288.50
2023-01-18T08:24:03.551Z,98291.19
2023-01-18T08:26:34.646Z,98296.00
2023-01-18T08:29:04.700Z,98306.47
2023-01-18T08:31:34.812Z,98308.97
2023-01-18T08:34:05.034Z,98315.28
2023-01-18T08:36:37.511Z,98332.72
2023-01-18T08:39:07.344Z,98328.75
2023-01-18T08:41:41.287Z,98325.75
2023-01-18T08:44:11.600Z,98334.06
2023-01-18T08:46:41.586Z,98335.59
2023-01-18T08:49:11.520Z,98331.44
2023-01-18T08:51:44.003Z,98335.09
2023-01-18T08:54:13.892Z,98333.78
2023-01-18T08:56:43.806Z,98347.25
2023-01-18T08:59:13.703Z,98352.03
2023-01-18T09:01:43.691Z,98351.56
2023-01-18T09:04:13.824Z,98356.56
2023-01-18T09:06:47.446Z,98362.69
2023-01-18T09:09:17.594Z,98371.69
2023-01-18T09:11:47.625Z,98381.97
2023-01-18T09:14:18.181Z,98384.34
2023-01-18T09:16:48.057Z,98383.00
2023-01-18T09:19:18.201Z,98391.00
2023-01-18T09:21:50.613Z,98403.97
2023-01-18T09:24:20.793Z,98395.31
2023-01-18T09:26:53.602Z,98405.63
2023-01-18T09:29:23.887Z,98408.63
2023-01-18T09:31:55.942Z,98407.13
2023-01-18T09:34:26.867Z,98419.97
2023-01-18T09:36:59.296Z,98421.63
2023-01-18T09:39:33.413Z,98421.59
2023-01-18T09:42:07.571Z,98427.13
2023-01-18T09:44:42.349Z,98433.25
2023-01-18T09:47:20.836Z,98438.44
2023-01-18T09:49:57.438Z,98448.88
2023-01-18T09:52:44.971Z,98451.88
2023-01-18T09:55:25.938Z,98450.53
2023-01-18T09:58:19.359Z,98459.88
2023-01-18T10:00:52.113Z,98461.69
2023-01-18T10:03:31.580Z,98463.00
2023-01-18T10:06:11.137Z,98468.91
2023-01-18T10:08:56.516Z,98467.56
2023-01-18T10:11:32.785Z,98475.38
2023-01-18T10:14:10.884Z,98477.53
2023-01-18T10:16:40.764Z,98476.84
2023-01-18T10:19:21.521Z,98483.53
2023-01-18T10:22:02.281Z,98488.53
2023-01-18T10:24:46.515Z,98489.00
2023-01-18T10:27:36.886Z,98485.09
2023-01-18T10:30:28.161Z,98490.28
2023-01-18T10:33:03.092Z,98494.06
2023-01-18T10:35:36.811Z,98497.47
2023-01-18T10:38:14.046Z,98497.31
2023-01-18T10:40:52.524Z,98501.09
2023-01-18T10:43:27.398Z,98496.13
2023-01-18T10:45:58.048Z,98493.34
2023-01-18T10:48:32.109Z,98496.78
2023-01-18T10:51:05.943Z,98495.81
2023-01-18T10:53:38.200Z,98493.81
2023-01-18T10:56:19.357Z,98495.13
2023-01-18T10:58:57.787Z,98487.88
2023-01-18T11:01:30.731Z,98499.78
2023-01-18T11:04:06.143Z,98502.66
2023-01-18T11:06:48.374Z,98510.91
2023-01-18T11:09:44.114Z,98517.09
2023-01-18T11:12:37.520Z,98517.47
2023-01-18T11:15:27.566Z,98517.88
2023-01-18T11:18:06.709Z,98526.28
2023-01-18T11:20:44.669Z,98525.72
2023-01-18T11:23:22.746Z,98536.78
2023-01-18T11:25:57.915Z,98527.13
2023-01-18T11:28:37.507Z,98534.34
2023-01-18T11:31:13.891Z,98537.56
2023-01-18T11:33:54.658Z,98541.75
2023-01-18T11:36:38.008Z,98539.22
2023-01-18T11:39:21.890Z,98543.63
2023-01-18T11:41:52.129Z,98543.63
2023-01-18T11:44:30.559Z,98551.63
2023-01-18T11:47:04.047Z,98541.59
2023-01-18T11:49:45.730Z,98552.78
2023-01-18T11:52:27.388Z,98557.38
2023-01-18T11:55:05.740Z,98555.75
2023-01-18T11:57:35.764Z,98558.72
2023-01-18T12:00:18.034Z,98561.47
2023-01-18T12:03:14.328Z,98558.97
2023-01-18T12:05:54.774Z,98575.56
2023-01-18T12:08:54.272Z,98564.78
2023-01-18T12:11:46.290Z,98573.53
2023-01-18T12:14:48.977Z,98579.00
2023-01-18T12:17:46.823Z,98587.22
2023-01-18T12:20:34.696Z,98588.22
2023-01-18T12:23:24.224Z,98580.88
2023-01-18T12:26:25.415Z,98584.03
2023-01-18T12:29:15.448Z,98587.00
2023-01-18T12:32:02.648Z,98587.28
2023-01-18T12:34:44.536Z,98586.56
2023-01-18T12:37:40.448Z,98600.34
2023-01-18T12:40:34.998Z,98601.25
2023-01-18T12:43:19.859Z,98602.03
2023-01-18T12:46:00.174Z,98603.09
2023-01-18T12:48:36.075Z,98608.28
2023-01-18T12:51:16.963Z,98606.34
2023-01-18T12:53:51.470Z,98619.56
2023-01-18T12:56:27.741Z,98616.59
2023-01-18T12:59:01.630Z,98618.13
2023-01-18T13:01:38.995Z,98621.78
2023-01-18T13:04:18.513Z,98619.75
2023-01-18T13:06:53.058Z,98619.50
2023-01-18T13:09:28.529Z,98630.84
2023-01-18T13:11:59.472Z,98635.47
2023-01-18T13:14:39.170Z,98639.69
2023-01-18T13:17:18.493Z,98635.16
2023-01-18T13:19:56.014Z,98639.88
2023-01-18T13:22:43.186Z,98650.25
2023-01-18T13:25:38.086Z,98645.63
2023-01-18T13:28:19.633Z,98647.72
2023-01-18T13:30:56.895Z,98653.03
2023-01-18T13:33:30.704Z,98651.47
2023-01-18T13:36:07.883Z,98660.78
2023-01-18T13:38:50.772Z,98660.16
2023-01-18T13:41:26.886Z,98666.47
2023-01-18T13:44:06.129Z,98676.16
2023-01-18T13:46:39.613Z,98678.22
2023-01-18T13:49:37.123Z,98695.34
2023-01-18T13:52:32.187Z,98691.88
2023-01-18T13:55:08.333Z,98691.22
2023-01-18T13:57:38.554Z,98696.44
2023-01-18T14:00:24.590Z,98699.13
2023-01-18T14:02:58.279Z,98701.63
2023-01-18T14:05:40.515Z,98708.69
2023-01-18T14:08:13.470Z,98707.50
2023-01-18T14:10:54.295Z,98721.41
2023-01-18T14:14:03.950Z,98719.75
2023-01-18T14:16:38.232Z,98723.34
2023-01-18T14:19:19.815Z,98725.06
2023-01-18T14:22:11.214Z,98738.38
2023-01-18T14:25:17.392Z,98733.78
2023-01-18T14:28:03.508Z,98742.22
2023-01-18T14:30:38.081Z,98746.22
2023-01-18T14:33:18.443Z,98745.72
2023-01-18T14:35:56.112Z,98764.84
2023-01-18T14:38:25.986Z,98767.41
2023-01-18T14:40:59.922Z,98769.56
2023-01-18T14:43:36.399Z,98758.25
2023-01-18T14:46:10.863Z,98765.41
2023-01-18T14:48:51.554Z,98767.72
2023-01-18T14:51:25.028Z,98777.56
2023-01-18T14:54:00.543Z,98785.94
2023-01-18T14:56:33.413Z,98789.41
2023-01-18T14:59:22.132Z,98784.41
2023-01-18T15:01:58.181Z,98791.22
2023-01-18T15:04:29.886Z,98797.75
2023-01-18T15:07:04.071Z,98805.75
2023-01-18T15:09:37.370Z,98814.56
2023-01-18T15:12:11.647Z,98815.94
2023-01-18T15:14:48.052Z,98820.94
2023-01-18T15:17:24.027Z,98819.91
2023-01-18T15:19:59.484Z,98832.72
2023-01-18T15:22:35.887Z,98836.75
2023-01-18T15:25:10.357Z,98835.34
2023-01-18T15:27:42.199Z,98852.25
2023-01-18T15:30:17.864Z,98851.19
2023-01-18T15:32:51.316Z,98858.66
2023-01-18T15:35:22.000Z,98857.59
2023-01-18T15:37:51.932Z,98862.31
2023-01-18T15:40:28.605Z,98863.63
2023-01-18T15:43:07.577Z,98868.31
2023-01-18T15:45:43.751Z,98866.19
2023-01-18T15:48:22.781Z,98885.03
2023-01-18T15:50:54.960Z,98884.31
2023-01-18T15:53:33.287Z,98883.22
2023-01-18T15:56:05.737Z,98886.88
2023-01-18T15:58:45.670Z,98893.97
2023-01-18T16:01:25.194Z,98890.56
2023-01-18T16:04:04.015Z,98893.75
2023-01-18T16:06:37.460Z,98890.88
2023-01-18T16:09:20.995Z,98905.28
2023-01-18T16:11:54.632Z,98905.97
2023-01-18T16:14:34.626Z,98909.38
2023-01-18T16:17:15.007Z,98909.66
2023-01-18T16:19:48.258Z,98921.19
2023-01-18T16:22:24.489Z,98913.59
2023-01-18T16:24:59.900Z,98923.84
2023-01-18T16:27:34.108Z,98925.50
2023-01-18T16:30:07.613Z,98930.69
2023-01-18T16:32:40.143Z,98936.56
2023-01-18T16:35:16.457Z,98940.13
2023-01-18T16:37:47.762Z,98943.41
2023-01-18T16:40:21.157Z,98947.44
2023-01-18T16:43:01.393Z,98952.00
2023-01-18T16:45:33.472Z,98963.78
2023-01-18T16:48:06.941Z,98966.59
2023-01-18T16:50:37.049Z,98969.72
2023-01-18T16:53:09.494Z,98969.78
2023-01-18T16:55:39.895Z,98967.91
2023-01-18T16:58:10.125Z,98976.56
2023-01-18T17:00:52.429Z,98991.69
2023-01-18T17:03:25.636Z,98987.72
2023-01-18T17:05:55.994Z,98998.38
2023-01-18T17:08:26.111Z,98995.38
2023-01-18T17:10:56.815Z,99000.44
2023-01-18T17:13:27.352Z,99012.75
2023-01-18T17:15:57.281Z,99013.28
2023-01-18T17:18:29.849Z,99025.69
2023-01-18T17:20:59.855Z,99028.41
2023-01-18T17:23:29.800Z,99035.41
2023-01-18T17:25:59.799Z,99042.16
2023-01-18T17:28:30.195Z,99040.06
2023-01-18T17:31:00.403Z,99040.34
2023-01-18T17:33:36.058Z,99049.41
2023-01-18T17:36:05.948Z,99053.50
2023-01-18T17:38:35.976Z,99054.94
2023-01-18T17:41:08.225Z,99061.63
2023-01-18T17:43:39.548Z,99066.75
2023-01-18T17:46:09.591Z,99066.59
2023-01-18T17:48:42.227Z,99077.31
2023-01-18T17:51:14.107Z,99077.84
2023-01-18T17:53:44.990Z,99082.91
2023-01-18T17:56:16.937Z,99084.75
2023-01-18T17:58:49.707Z,99080.25
2023-01-18T18:01:20.415Z,99083.75
2023-01-18T18:03:55.060Z,99096.38
2023-01-18T18:06:31.287Z,99101.38
2023-01-18T18:09:01.879Z,99109.09
2023-01-18T18:11:32.171Z,99122.38
2023-01-18T18:14:03.147Z,99121.84
2023-01-18T18:16:38.495Z,99119.41
2023-01-18T18:19:16.888Z,99124.03
2023-01-18T18:21:47.904Z,99128.84
2023-01-18T18:24:17.801Z,99135.25
2023-01-18T18:26:48.037Z,99138.59
2023-01-18T18:29:17.954Z,99138.91
2023-01-18T18:31:49.773Z,99145.16
2023-01-18T18:34:22.381Z,99153.59
2023-01-18T18:36:52.377Z,99151.59
2023-01-18T18:39:22.364Z,99157.31
2023-01-18T18:41:53.055Z,99163.47
2023-01-18T18:44:23.056Z,99167.44
2023-01-18T18:46:53.170Z,99168.78
2023-01-18T18:49:25.777Z,99170.19
2023-01-18T18:51:56.247Z,99161.81
2023-01-18T18:54:26.252Z,99175.25
2023-01-18T18:56:56.347Z,99173.84
2023-01-18T18:59:29.145Z,99179.88
2023-01-18T19:01:59.328Z,99181.25
2023-01-18T19:04:31.919Z,99191.44
2023-01-18T19:07:02.078Z,99191.75
2023-01-18T19:09:32.032Z,99195.38
2023-01-18T19:12:01.997Z,99206.00
2023-01-18T19:14:32.227Z,99215.34
2023-01-18T19:17:02.930Z,99217.19
2023-01-18T19:19:35.438Z,99215.78
2023-01-18T19:22:05.521Z,99222.06
2023-01-18T19:24:36.909Z,99230.31
2023-01-18T19:27:07.195Z,99228.59
2023-01-18T19:29:38.294Z,99232.41
2023-01-18T19:32:08.571Z,99230.03
2023-01-18T19:34:41.179Z,99241.81
2023-01-18T19:37:12.620Z,99235.91
2023-01-18T19:39:42.574Z,99240.94
2023-01-18T19:42:12.558Z,99243.81
2023-01-18T19:44:42.546Z,99239.78
2023-01-18T19:47:12.403Z,99241.22
2023-01-18T19:49:45.569Z,99245.94
2023-01-18T19:52:15.538Z,99243.91
2023-01-18T19:54:45.376Z,99250.66
2023-01-18T19:57:15.303Z,99252.09
2023-01-18T19:59:45.250Z,99259.13
2023-01-18T20:02:15.331Z,99258.13
2023-01-18T20:04:48.212Z,99269.16
2023-01-18T20:07:19.100Z,99267.72
2023-01-18T20:09:49.008Z,99279.19
2023-01-18T20:12:19.071Z,99268.44
2023-01-18T20:14:50.260Z,99282.22
2023-01-18T20:17:20.295Z,99283.91
2023-01-18T20:19:54.331Z,99282.81
2023-01-18T20:22:25.156Z,99287.59
2023-01-18T20:24:55.081Z,99288.69
2023-01-18T20:27:25.027Z,99294.00
2023-01-18T20:29:55.572Z,99298.31
2023-01-18T20:32:25.603Z,99297.91
2023-01-18T20:34:58.189Z,99305.78
2023-01-18T20:37:28.284Z,99302.44
2023-01-18T20:39:58.605Z,99305.69
2023-01-18T20:42:28.725Z,99309.91
2023-01-18T20:45:00.555Z,99312.22
2023-01-18T20:47:31.106Z,99323.22
2023-01-18T20:50:03.657Z,99320.13
2023-01-18T20:52:33.682Z,99319.69
2023-01-18T20:55:03.802Z,99327.34
2023-01-18T20:57:34.383Z,99332.78
2023-01-18T21:00:04.356Z,99335.00
2023-01-18T21:02:34.493Z,99339.25
2023-01-18T21:05:07.576Z,99343.06
2023-01-18T21:07:38.461Z,99346.25
2023-01-18T21:10:10.830Z,99341.78
2023-01-18T21:12:41.480Z,99357.91
2023-01-18T21:15:13.728Z,99351.56
2023-01-18T21:17:43.656Z,99358.38
2023-01-18T21:20:16.909Z,99360.69
2023-01-18T21:22:46.837Z,99362.13
2023-01-18T21:25:16.911Z,99357.41
2023-01-18T21:27:46.823Z,99366.34
2023-01-18T21:30:18.050Z,99364.91
2023-01-18T21:32:48.968Z,99361.97
2023-01-18T21:35:21.697Z,99361.41
2023-01-18T21:37:51.635Z,99364.63
2023-01-18T21:40:21.712Z,99369.00
2023-01-18T21:43:04.063Z,99366.59
2023-01-18T21:45:46.514Z,99373.56
2023-01-18T21:48:16.371Z,99373.06
2023-01-18T21:51:01.262Z,99372.34
2023-01-18T21:53:43.559Z,99379.53
2023-01-18T21:56:13.773Z,99373.19
2023-01-18T21:58:57.916Z,99373.81
2023-01-18T22:01:33.958Z,99382.78
2023-01-18T22:04:18.311Z,99381.97
2023-01-18T22:06:53.083Z,99376.50
2023-01-18T22:09:23.358Z,99380.44
2023-01-18T22:11:53.390Z,99395.66
2023-01-18T22:14:23.429Z,99396.50
2023-01-18T22:16:53.601Z,99399.22
2023-01-18T22:19:23.724Z,99401.22
2023-01-18T22:21:56.374Z,99411.41
2023-01-18T22:24:26.277Z,99416.06
2023-01-18T22:26:56.475Z,99414.81
2023-01-18T22:29:29.395Z,99425.50
2023-01-18T22:31:59.368Z,99427.53
2023-01-18T22:34:29.613Z,99426.56
2023-01-18T22:37:03.335Z,99430.94
2023-01-18T22:39:33.459Z,99435.63
2023-01-18T22:42:03.439Z,99445.38
2023-01-18T22:44:33.499Z,99440.06
2023-01-18T22:47:03.364Z,99444.75
2023-01-18T22:49:33.326Z,99444.88
2023-01-18T22:52:05.830Z,99454.56
2023-01-18T22:54:35.699Z,99448.53
2023-01-18T22:57:05.553Z,99448.78
2023-01-18T22:59:35.624Z,99446.84
2023-01-18T23:02:05.469Z,99446.78
2023-01-18T23:04:35.284Z,99447.94
2023-01-18T23:07:07.824Z,99453.00
2023-01-18T23:09:37.772Z,99449.19
2023-01-18T23:12:08.286Z,99453.88
2023-01-18T23:14:50.857Z,99447.38
2023-01-18T23:17:33.309Z,99452.16
2023-01-18T23:20:03.464Z,99465.38
2023-01-18T23:22:35.952Z,99455.59
2023-01-18T23:25:06.801Z,99453.75
2023-01-18T23:27:36.718Z,99456.19
2023-01-18T23:30:07.723Z,99456.78
2023-01-18T23:32:37.636Z,99457.78
2023-01-18T23:35:08.897Z,99452.81
2023-01-18T23:37:41.322Z,99460.06
2023-01-18T23:40:25.161Z,99462.03
2023-01-18T23:43:08.752Z,99459.59
2023-01-18T23:45:51.044Z,99457.88
2023-01-18T23:48:34.871Z,99453.03
2023-01-18T23:51:18.362Z,99453.75
2023-01-18T23:54:03.863Z,99456.53
2023-01-18T23:56:34.724Z,99465.66
2023-01-18T23:59:05.112Z,99460.13
